sensor_id;sensor_type;location;lat;lon;timestamp;temperature;humidity
16038;DHT22;8123;50.906;6.172;2023-12-22T00:01:06;7.80;1.00
16038;DHT22;8123;50.906;6.172;2023-12-22T00:03:32;7.00;1.00
16038;DHT22;8123;50.906;6.172;2023-12-22T00:05:58;7.40;1.00
16038;DHT22;8123;50.906;6.172;2023-12-22T00:08:23;7.80;1.00
16038;DHT22;8123;50.906;6.172;2023-12-22T00:10:49;7.40;1.00
16038;DHT22;8123;50.906;6.172;2023-12-22T00:13:15;7.10;1.00
16038;DHT22;8123;50.906;6.172;2023-12-22T00:15:40;7.60;1.00
16038;DHT22;8123;50.906;6.172;2023-12-22T00:18:08;6.80;1.00
16038;DHT22;8123;50.906;6.172;2023-12-22T00:20:33;7.20;1.00
16038;DHT22;8123;50.906;6.172;2023-12-22T00:22:59;7.50;1.00
16038;DHT22;8123;50.906;6.172;2023-12-22T00:25:25;7.10;1.00
16038;DHT22;8123;50.906;6.172;2023-12-22T00:27:51;7.70;1.00
16038;DHT22;8123;50.906;6.172;2023-12-22T00:30:16;7.20;1.00
16038;DHT22;8123;50.906;6.172;2023-12-22T00:32:42;7.80;1.00
16038;DHT22;8123;50.906;6.172;2023-12-22T00:35:08;7.10;1.00
16038;DHT22;8123;50.906;6.172;2023-12-22T00:37:34;7.00;1.00
16038;DHT22;8123;50.906;6.172;2023-12-22T00:39:59;7.30;1.00
16038;DHT22;8123;50.906;6.172;2023-12-22T00:42:25;7.40;1.00
16038;DHT22;8123;50.906;6.172;2023-12-22T00:44:51;7.20;1.00
16038;DHT22;8123;50.906;6.172;2023-12-22T00:47:17;8.10;1.00
16038;DHT22;8123;50.906;6.172;2023-12-22T00:49:43;8.10;1.00
16038;DHT22;8123;50.906;6.172;2023-12-22T00:52:08;7.30;1.00
16038;DHT22;8123;50.906;6.172;2023-12-22T00:54:34;7.30;1.00
16038;DHT22;8123;50.906;6.172;2023-12-22T00:57:00;7.10;1.00
16038;DHT22;8123;50.906;6.172;2023-12-22T00:59:25;7.10;1.00
16038;DHT22;8123;50.906;6.172;2023-12-22T01:01:51;7.20;1.00
16038;DHT22;8123;50.906;6.172;2023-12-22T01:04:17;7.20;1.00
16038;DHT22;8123;50.906;6.172;2023-12-22T01:06:42;7.20;1.00
16038;DHT22;8123;50.906;6.172;2023-12-22T01:09:08;7.70;1.00
16038;DHT22;8123;50.906;6.172;2023-12-22T01:11:34;7.40;1.00
16038;DHT22;8123;50.906;6.172;2023-12-22T01:13:59;7.50;1.00
16038;DHT22;8123;50.906;6.172;2023-12-22T01:16:25;7.50;1.00
16038;DHT22;8123;50.906;6.172;2023-12-22T01:18:51;7.60;1.00
16038;DHT22;8123;50.906;6.172;2023-12-22T01:21:17;7.50;1.00
16038;DHT22;8123;50.906;6.172;2023-12-22T01:23:42;7.70;1.00
16038;DHT22;8123;50.906;6.172;2023-12-22T01:26:08;7.50;1.00
16038;DHT22;8123;50.906;6.172;2023-12-22T01:28:36;7.70;1.00
16038;DHT22;8123;50.906;6.172;2023-12-22T01:31:02;8.10;1.00
16038;DHT22;8123;50.906;6.172;2023-12-22T01:33:28;7.70;1.00
16038;DHT22;8123;50.906;6.172;2023-12-22T01:35:55;7.60;1.00
16038;DHT22;8123;50.906;6.172;2023-12-22T01:38:20;7.60;1.00
16038;DHT22;8123;50.906;6.172;2023-12-22T01:40:46;7.60;99.90
16038;DHT22;8123;50.906;6.172;2023-12-22T01:43:12;7.50;1.00
16038;DHT22;8123;50.906;6.172;2023-12-22T01:45:39;7.40;1.00
16038;DHT22;8123;50.906;6.172;2023-12-22T01:48:04;7.20;1.00
16038;DHT22;8123;50.906;6.172;2023-12-22T01:50:30;7.10;1.00
16038;DHT22;8123;50.906;6.172;2023-12-22T01:52:56;7.10;1.00
16038;DHT22;8123;50.906;6.172;2023-12-22T01:55:22;7.10;1.00
16038;DHT22;8123;50.906;6.172;2023-12-22T01:57:49;7.10;1.00
16038;DHT22;8123;50.906;6.172;2023-12-22T02:00:15;7.40;1.00
16038;DHT22;8123;50.906;6.172;2023-12-22T02:02:42;6.70;1.00
16038;DHT22;8123;50.906;6.172;2023-12-22T02:05:10;7.60;1.00
16038;DHT22;8123;50.906;6.172;2023-12-22T02:07:38;7.30;1.00
16038;DHT22;8123;50.906;6.172;2023-12-22T02:10:07;7.40;1.00
16038;DHT22;8123;50.906;6.172;2023-12-22T02:12:34;7.00;1.00
16038;DHT22;8123;50.906;6.172;2023-12-22T02:15:00;7.10;1.00
16038;DHT22;8123;50.906;6.172;2023-12-22T02:17:32;7.00;1.00
16038;DHT22;8123;50.906;6.172;2023-12-22T02:20:00;7.10;1.00
16038;DHT22;8123;50.906;6.172;2023-12-22T02:22:29;7.50;1.00
16038;DHT22;8123;50.906;6.172;2023-12-22T02:24:54;7.30;1.00
16038;DHT22;8123;50.906;6.172;2023-12-22T02:29:49;7.70;1.00
16038;DHT22;8123;50.906;6.172;2023-12-22T02:32:25;7.70;1.00
16038;DHT22;8123;50.906;6.172;2023-12-22T02:34:54;7.60;1.00
16038;DHT22;8123;50.906;6.172;2023-12-22T02:37:21;7.50;1.00
16038;DHT22;8123;50.906;6.172;2023-12-22T02:39:49;7.50;1.00
16038;DHT22;8123;50.906;6.172;2023-12-22T02:42:15;7.40;1.00
16038;DHT22;8123;50.906;6.172;2023-12-22T02:44:42;7.40;1.00
16038;DHT22;8123;50.906;6.172;2023-12-22T02:47:07;7.30;1.00
16038;DHT22;8123;50.906;6.172;2023-12-22T02:49:33;7.30;1.00
16038;DHT22;8123;50.906;6.172;2023-12-22T02:51:58;7.30;1.00
16038;DHT22;8123;50.906;6.172;2023-12-22T02:54:24;7.30;1.00
16038;DHT22;8123;50.906;6.172;2023-12-22T02:56:50;7.30;1.00
16038;DHT22;8123;50.906;6.172;2023-12-22T02:59:15;7.40;1.00
16038;DHT22;8123;50.906;6.172;2023-12-22T03:01:41;7.40;1.00
16038;DHT22;8123;50.906;6.172;2023-12-22T03:04:07;7.60;99.90
16038;DHT22;8123;50.906;6.172;2023-12-22T03:06:32;7.50;99.90
16038;DHT22;8123;50.906;6.172;2023-12-22T03:08:58;7.90;99.90
16038;DHT22;8123;50.906;6.172;2023-12-22T03:11:23;7.80;99.90
16038;DHT22;8123;50.906;6.172;2023-12-22T03:13:49;8.00;99.90
16038;DHT22;8123;50.906;6.172;2023-12-22T03:16:14;8.00;99.90
16038;DHT22;8123;50.906;6.172;2023-12-22T03:18:40;7.70;99.90
16038;DHT22;8123;50.906;6.172;2023-12-22T03:21:06;7.90;1.00
16038;DHT22;8123;50.906;6.172;2023-12-22T03:23:31;7.80;52.30
16038;DHT22;8123;50.906;6.172;2023-12-22T03:25:57;7.60;1.00
16038;DHT22;8123;50.906;6.172;2023-12-22T03:28:22;7.50;38.90
16038;DHT22;8123;50.906;6.172;2023-12-22T03:30:48;7.50;38.70
16038;DHT22;8123;50.906;6.172;2023-12-22T03:33:13;7.60;1.00
16038;DHT22;8123;50.906;6.172;2023-12-22T03:35:39;7.70;1.00
16038;DHT22;8123;50.906;6.172;2023-12-22T03:38:05;7.50;99.90
16038;DHT22;8123;50.906;6.172;2023-12-22T03:40:30;7.50;99.90
16038;DHT22;8123;50.906;6.172;2023-12-22T03:42:56;7.60;99.90
16038;DHT22;8123;50.906;6.172;2023-12-22T03:45:22;7.50;99.90
16038;DHT22;8123;50.906;6.172;2023-12-22T03:47:47;7.40;99.90
16038;DHT22;8123;50.906;6.172;2023-12-22T03:50:13;7.40;99.90
16038;DHT22;8123;50.906;6.172;2023-12-22T03:52:38;7.30;1.00
16038;DHT22;8123;50.906;6.172;2023-12-22T03:55:04;7.40;1.00
16038;DHT22;8123;50.906;6.172;2023-12-22T03:57:30;7.30;1.00
16038;DHT22;8123;50.906;6.172;2023-12-22T03:59:55;7.40;1.00
16038;DHT22;8123;50.906;6.172;2023-12-22T04:02:21;7.50;1.00
16038;DHT22;8123;50.906;6.172;2023-12-22T04:04:47;7.30;1.00
16038;DHT22;8123;50.906;6.172;2023-12-22T04:07:13;7.40;1.00
16038;DHT22;8123;50.906;6.172;2023-12-22T04:09:39;7.40;1.00
16038;DHT22;8123;50.906;6.172;2023-12-22T04:12:05;7.30;1.00
16038;DHT22;8123;50.906;6.172;2023-12-22T04:14:30;7.30;1.00
16038;DHT22;8123;50.906;6.172;2023-12-22T04:16:56;7.70;1.00
16038;DHT22;8123;50.906;6.172;2023-12-22T04:19:22;7.50;1.00
16038;DHT22;8123;50.906;6.172;2023-12-22T04:21:48;7.50;1.00
16038;DHT22;8123;50.906;6.172;2023-12-22T04:24:14;7.50;1.00
16038;DHT22;8123;50.906;6.172;2023-12-22T04:26:39;7.50;1.00
16038;DHT22;8123;50.906;6.172;2023-12-22T04:29:05;7.40;1.00
16038;DHT22;8123;50.906;6.172;2023-12-22T04:31:31;7.50;1.00
16038;DHT22;8123;50.906;6.172;2023-12-22T04:33:56;7.40;1.00
16038;DHT22;8123;50.906;6.172;2023-12-22T04:36:22;7.30;1.00
16038;DHT22;8123;50.906;6.172;2023-12-22T04:38:48;7.40;1.00
16038;DHT22;8123;50.906;6.172;2023-12-22T04:41:13;7.40;1.00
16038;DHT22;8123;50.906;6.172;2023-12-22T04:43:39;7.50;1.00
16038;DHT22;8123;50.906;6.172;2023-12-22T04:46:04;7.60;1.00
16038;DHT22;8123;50.906;6.172;2023-12-22T04:48:30;7.60;1.00
16038;DHT22;8123;50.906;6.172;2023-12-22T04:50:58;7.60;1.00
16038;DHT22;8123;50.906;6.172;2023-12-22T04:53:24;7.70;1.00
16038;DHT22;8123;50.906;6.172;2023-12-22T04:55:49;7.80;1.00
16038;DHT22;8123;50.906;6.172;2023-12-22T04:58:15;7.80;1.00
16038;DHT22;8123;50.906;6.172;2023-12-22T05:00:40;7.80;1.00
16038;DHT22;8123;50.906;6.172;2023-12-22T05:03:06;8.00;99.90
16038;DHT22;8123;50.906;6.172;2023-12-22T05:05:32;8.00;99.90
16038;DHT22;8123;50.906;6.172;2023-12-22T05:07:57;8.00;99.90
16038;DHT22;8123;50.906;6.172;2023-12-22T05:10:23;8.00;99.90
16038;DHT22;8123;50.906;6.172;2023-12-22T05:12:48;8.20;99.90
16038;DHT22;8123;50.906;6.172;2023-12-22T05:15:14;8.10;15.70
16038;DHT22;8123;50.906;6.172;2023-12-22T05:17:40;8.20;1.00
16038;DHT22;8123;50.906;6.172;2023-12-22T05:20:06;8.20;1.00
16038;DHT22;8123;50.906;6.172;2023-12-22T05:22:32;8.30;1.00
16038;DHT22;8123;50.906;6.172;2023-12-22T05:24:58;8.20;1.00
16038;DHT22;8123;50.906;6.172;2023-12-22T05:27:24;8.30;1.00
16038;DHT22;8123;50.906;6.172;2023-12-22T05:29:50;8.30;1.00
16038;DHT22;8123;50.906;6.172;2023-12-22T05:32:16;8.30;1.00
16038;DHT22;8123;50.906;6.172;2023-12-22T05:34:41;8.30;1.00
16038;DHT22;8123;50.906;6.172;2023-12-22T05:37:07;8.30;1.00
16038;DHT22;8123;50.906;6.172;2023-12-22T05:39:33;8.30;1.00
16038;DHT22;8123;50.906;6.172;2023-12-22T05:41:58;8.40;99.90
16038;DHT22;8123;50.906;6.172;2023-12-22T05:44:25;8.20;99.90
16038;DHT22;8123;50.906;6.172;2023-12-22T05:46:55;8.10;1.00
16038;DHT22;8123;50.906;6.172;2023-12-22T05:49:20;8.20;1.00
16038;DHT22;8123;50.906;6.172;2023-12-22T05:51:47;7.90;1.00
16038;DHT22;8123;50.906;6.172;2023-12-22T05:54:12;8.00;1.00
16038;DHT22;8123;50.906;6.172;2023-12-22T05:56:38;7.70;1.00
16038;DHT22;8123;50.906;6.172;2023-12-22T05:59:04;7.70;1.00
16038;DHT22;8123;50.906;6.172;2023-12-22T06:01:29;7.90;1.00
16038;DHT22;8123;50.906;6.172;2023-12-22T06:03:55;7.70;1.00
16038;DHT22;8123;50.906;6.172;2023-12-22T06:06:21;7.60;1.00
16038;DHT22;8123;50.906;6.172;2023-12-22T06:08:47;7.90;1.00
16038;DHT22;8123;50.906;6.172;2023-12-22T06:11:13;7.80;1.00
16038;DHT22;8123;50.906;6.172;2023-12-22T06:13:39;7.80;1.00
16038;DHT22;8123;50.906;6.172;2023-12-22T06:16:04;7.70;1.00
16038;DHT22;8123;50.906;6.172;2023-12-22T06:18:30;7.80;1.00
16038;DHT22;8123;50.906;6.172;2023-12-22T06:20:56;7.70;1.00
16038;DHT22;8123;50.906;6.172;2023-12-22T06:23:21;7.70;1.00
16038;DHT22;8123;50.906;6.172;2023-12-22T06:25:47;7.70;1.00
16038;DHT22;8123;50.906;6.172;2023-12-22T06:28:13;7.70;1.00
16038;DHT22;8123;50.906;6.172;2023-12-22T06:30:42;7.80;1.00
16038;DHT22;8123;50.906;6.172;2023-12-22T06:33:08;7.80;1.00
16038;DHT22;8123;50.906;6.172;2023-12-22T06:35:34;7.90;1.00
16038;DHT22;8123;50.906;6.172;2023-12-22T06:37:59;8.00;1.00
16038;DHT22;8123;50.906;6.172;2023-12-22T06:40:29;8.00;1.00
16038;DHT22;8123;50.906;6.172;2023-12-22T06:42:54;8.10;1.00
16038;DHT22;8123;50.906;6.172;2023-12-22T06:45:20;8.10;1.00
16038;DHT22;8123;50.906;6.172;2023-12-22T06:47:47;8.00;1.00
16038;DHT22;8123;50.906;6.172;2023-12-22T06:50:13;8.00;1.00
16038;DHT22;8123;50.906;6.172;2023-12-22T06:52:39;8.00;1.00
16038;DHT22;8123;50.906;6.172;2023-12-22T06:55:05;8.00;1.00
16038;DHT22;8123;50.906;6.172;2023-12-22T06:57:31;8.00;1.00
16038;DHT22;8123;50.906;6.172;2023-12-22T06:59:56;8.00;1.00
16038;DHT22;8123;50.906;6.172;2023-12-22T07:02:22;8.00;1.00
16038;DHT22;8123;50.906;6.172;2023-12-22T07:07:49;8.00;1.00
16038;DHT22;8123;50.906;6.172;2023-12-22T07:10:16;8.20;1.00
16038;DHT22;8123;50.906;6.172;2023-12-22T07:12:42;8.00;1.00
16038;DHT22;8123;50.906;6.172;2023-12-22T07:15:08;8.00;1.00
16038;DHT22;8123;50.906;6.172;2023-12-22T07:17:34;7.90;1.00
16038;DHT22;8123;50.906;6.172;2023-12-22T07:20:00;8.10;1.00
16038;DHT22;8123;50.906;6.172;2023-12-22T07:22:28;8.00;1.00
16038;DHT22;8123;50.906;6.172;2023-12-22T07:24:54;8.00;1.00
16038;DHT22;8123;50.906;6.172;2023-12-22T07:27:21;8.00;1.00
16038;DHT22;8123;50.906;6.172;2023-12-22T07:29:47;8.10;1.00
16038;DHT22;8123;50.906;6.172;2023-12-22T07:32:12;8.00;1.00
16038;DHT22;8123;50.906;6.172;2023-12-22T07:34:38;8.00;1.00
16038;DHT22;8123;50.906;6.172;2023-12-22T07:37:03;8.10;1.00
16038;DHT22;8123;50.906;6.172;2023-12-22T07:39:30;8.00;1.00
16038;DHT22;8123;50.906;6.172;2023-12-22T07:41:56;8.10;1.00
16038;DHT22;8123;50.906;6.172;2023-12-22T07:44:21;8.10;1.00
16038;DHT22;8123;50.906;6.172;2023-12-22T07:46:56;8.20;1.00
16038;DHT22;8123;50.906;6.172;2023-12-22T07:49:22;8.10;1.00
16038;DHT22;8123;50.906;6.172;2023-12-22T07:51:48;8.10;1.00
16038;DHT22;8123;50.906;6.172;2023-12-22T07:54:17;8.10;1.00
16038;DHT22;8123;50.906;6.172;2023-12-22T07:56:42;8.10;1.00
16038;DHT22;8123;50.906;6.172;2023-12-22T07:59:08;8.10;1.00
16038;DHT22;8123;50.906;6.172;2023-12-22T08:01:34;8.10;1.00
16038;DHT22;8123;50.906;6.172;2023-12-22T08:03:59;8.10;1.00
16038;DHT22;8123;50.906;6.172;2023-12-22T08:06:25;8.10;1.00
16038;DHT22;8123;50.906;6.172;2023-12-22T08:08:51;8.20;1.00
16038;DHT22;8123;50.906;6.172;2023-12-22T08:11:16;8.10;1.00
16038;DHT22;8123;50.906;6.172;2023-12-22T08:13:42;8.10;1.00
16038;DHT22;8123;50.906;6.172;2023-12-22T08:16:07;8.10;1.00
16038;DHT22;8123;50.906;6.172;2023-12-22T08:18:33;8.10;1.00
16038;DHT22;8123;50.906;6.172;2023-12-22T08:20:58;8.10;1.00
16038;DHT22;8123;50.906;6.172;2023-12-22T08:23:24;8.10;1.00
16038;DHT22;8123;50.906;6.172;2023-12-22T08:25:50;8.10;1.00
16038;DHT22;8123;50.906;6.172;2023-12-22T08:28:15;8.20;1.00
16038;DHT22;8123;50.906;6.172;2023-12-22T08:30:41;8.10;1.00
16038;DHT22;8123;50.906;6.172;2023-12-22T08:33:07;8.10;1.00
16038;DHT22;8123;50.906;6.172;2023-12-22T08:35:32;8.10;1.00
16038;DHT22;8123;50.906;6.172;2023-12-22T08:37:58;8.20;1.00
16038;DHT22;8123;50.906;6.172;2023-12-22T08:40:24;8.40;1.00
16038;DHT22;8123;50.906;6.172;2023-12-22T08:42:51;8.20;1.00
16038;DHT22;8123;50.906;6.172;2023-12-22T08:45:20;8.20;1.00
16038;DHT22;8123;50.906;6.172;2023-12-22T08:47:46;8.40;1.00
16038;DHT22;8123;50.906;6.172;2023-12-22T08:50:12;8.30;1.00
16038;DHT22;8123;50.906;6.172;2023-12-22T08:52:38;8.30;1.00
16038;DHT22;8123;50.906;6.172;2023-12-22T08:55:04;8.40;1.00
16038;DHT22;8123;50.906;6.172;2023-12-22T08:57:30;8.30;1.00
16038;DHT22;8123;50.906;6.172;2023-12-22T08:59:57;8.50;1.00
16038;DHT22;8123;50.906;6.172;2023-12-22T09:02:22;8.40;1.00
16038;DHT22;8123;50.906;6.172;2023-12-22T09:04:48;8.40;1.00
16038;DHT22;8123;50.906;6.172;2023-12-22T09:07:14;8.40;1.00
16038;DHT22;8123;50.906;6.172;2023-12-22T09:09:39;8.50;1.00
16038;DHT22;8123;50.906;6.172;2023-12-22T09:12:05;8.50;1.00
16038;DHT22;8123;50.906;6.172;2023-12-22T09:14:31;8.50;1.00
16038;DHT22;8123;50.906;6.172;2023-12-22T09:16:57;8.50;1.00
16038;DHT22;8123;50.906;6.172;2023-12-22T09:19:23;8.50;1.00
16038;DHT22;8123;50.906;6.172;2023-12-22T09:21:48;8.50;1.00
16038;DHT22;8123;50.906;6.172;2023-12-22T09:24:14;8.60;1.00
16038;DHT22;8123;50.906;6.172;2023-12-22T09:26:41;8.60;1.00
16038;DHT22;8123;50.906;6.172;2023-12-22T09:29:07;8.50;1.00
16038;DHT22;8123;50.906;6.172;2023-12-22T09:31:33;8.60;1.00
16038;DHT22;8123;50.906;6.172;2023-12-22T09:33:58;8.50;5.70
16038;DHT22;8123;50.906;6.172;2023-12-22T09:36:24;8.50;13.30
16038;DHT22;8123;50.906;6.172;2023-12-22T09:38:50;8.50;20.30
16038;DHT22;8123;50.906;6.172;2023-12-22T09:41:15;8.50;27.90
16038;DHT22;8123;50.906;6.172;2023-12-22T09:43:42;8.50;36.50
16038;DHT22;8123;50.906;6.172;2023-12-22T09:46:11;8.50;43.40
16038;DHT22;8123;50.906;6.172;2023-12-22T09:48:37;8.50;51.00
16038;DHT22;8123;50.906;6.172;2023-12-22T09:51:05;8.50;59.60
16038;DHT22;8123;50.906;6.172;2023-12-22T09:53:33;8.50;69.60
16038;DHT22;8123;50.906;6.172;2023-12-22T09:56:00;8.50;80.20
16038;DHT22;8123;50.906;6.172;2023-12-22T09:58:26;8.40;88.80
16038;DHT22;8123;50.906;6.172;2023-12-22T10:00:52;8.50;91.80
16038;DHT22;8123;50.906;6.172;2023-12-22T10:03:19;8.50;94.40
16038;DHT22;8123;50.906;6.172;2023-12-22T10:05:46;8.60;95.30
16038;DHT22;8123;50.906;6.172;2023-12-22T10:08:12;8.50;97.00
16038;DHT22;8123;50.906;6.172;2023-12-22T10:10:39;8.60;99.60
16038;DHT22;8123;50.906;6.172;2023-12-22T10:13:14;8.50;99.90
16038;DHT22;8123;50.906;6.172;2023-12-22T10:15:40;8.50;99.90
16038;DHT22;8123;50.906;6.172;2023-12-22T10:18:06;8.50;99.90
16038;DHT22;8123;50.906;6.172;2023-12-22T10:20:32;8.40;99.90
16038;DHT22;8123;50.906;6.172;2023-12-22T10:22:58;8.50;99.90
16038;DHT22;8123;50.906;6.172;2023-12-22T10:25:28;8.70;99.90
16038;DHT22;8123;50.906;6.172;2023-12-22T10:27:55;8.60;99.90
16038;DHT22;8123;50.906;6.172;2023-12-22T10:30:21;8.70;99.90
16038;DHT22;8123;50.906;6.172;2023-12-22T10:32:47;8.70;99.90
16038;DHT22;8123;50.906;6.172;2023-12-22T10:35:13;9.00;99.90
16038;DHT22;8123;50.906;6.172;2023-12-22T10:37:38;9.10;99.90
16038;DHT22;8123;50.906;6.172;2023-12-22T10:40:05;8.90;99.90
16038;DHT22;8123;50.906;6.172;2023-12-22T10:42:32;8.90;99.90
16038;DHT22;8123;50.906;6.172;2023-12-22T10:44:57;9.00;99.90
16038;DHT22;8123;50.906;6.172;2023-12-22T10:47:23;9.10;99.90
16038;DHT22;8123;50.906;6.172;2023-12-22T10:49:49;9.10;99.90
16038;DHT22;8123;50.906;6.172;2023-12-22T10:52:16;9.20;99.90
16038;DHT22;8123;50.906;6.172;2023-12-22T10:54:43;9.30;93.10
16038;DHT22;8123;50.906;6.172;2023-12-22T10:57:10;9.40;91.90
16038;DHT22;8123;50.906;6.172;2023-12-22T10:59:40;9.50;81.50
16038;DHT22;8123;50.906;6.172;2023-12-22T11:02:18;9.50;74.00
16038;DHT22;8123;50.906;6.172;2023-12-22T11:05:00;9.50;68.50
16038;DHT22;8123;50.906;6.172;2023-12-22T11:07:28;9.50;60.60
16038;DHT22;8123;50.906;6.172;2023-12-22T11:09:56;9.60;57.90
16038;DHT22;8123;50.906;6.172;2023-12-22T11:12:23;9.70;57.00
16038;DHT22;8123;50.906;6.172;2023-12-22T11:14:51;9.60;58.10
16038;DHT22;8123;50.906;6.172;2023-12-22T11:17:19;9.60;56.50
16038;DHT22;8123;50.906;6.172;2023-12-22T11:19:49;9.60;59.20
16038;DHT22;8123;50.906;6.172;2023-12-22T11:22:17;9.60;55.70
16038;DHT22;8123;50.906;6.172;2023-12-22T11:24:47;9.60;50.50
16038;DHT22;8123;50.906;6.172;2023-12-22T11:27:17;9.70;49.90
16038;DHT22;8123;50.906;6.172;2023-12-22T11:29:48;9.60;47.90
16038;DHT22;8123;50.906;6.172;2023-12-22T11:32:18;9.70;39.40
16038;DHT22;8123;50.906;6.172;2023-12-22T11:34:45;10.00;29.00
16038;DHT22;8123;50.906;6.172;2023-12-22T11:37:12;9.80;22.20
16038;DHT22;8123;50.906;6.172;2023-12-22T11:39:39;9.70;27.20
16038;DHT22;8123;50.906;6.172;2023-12-22T11:42:08;9.80;26.90
16038;DHT22;8123;50.906;6.172;2023-12-22T11:44:34;9.80;36.00
16038;DHT22;8123;50.906;6.172;2023-12-22T11:47:08;9.70;36.70
16038;DHT22;8123;50.906;6.172;2023-12-22T11:49:36;9.70;36.80
16038;DHT22;8123;50.906;6.172;2023-12-22T11:52:15;9.70;38.00
16038;DHT22;8123;50.906;6.172;2023-12-22T11:54:50;9.90;53.10
16038;DHT22;8123;50.906;6.172;2023-12-22T11:57:36;9.60;62.00
16038;DHT22;8123;50.906;6.172;2023-12-22T12:00:04;9.60;65.00
16038;DHT22;8123;50.906;6.172;2023-12-22T12:02:37;9.60;63.80
16038;DHT22;8123;50.906;6.172;2023-12-22T12:05:07;9.70;52.80
16038;DHT22;8123;50.906;6.172;2023-12-22T12:07:46;9.70;33.50
16038;DHT22;8123;50.906;6.172;2023-12-22T12:13:07;9.80;25.60
16038;DHT22;8123;50.906;6.172;2023-12-22T12:15:34;9.80;24.60
16038;DHT22;8123;50.906;6.172;2023-12-22T12:18:00;9.80;13.40
16038;DHT22;8123;50.906;6.172;2023-12-22T12:20:27;9.90;1.00
16038;DHT22;8123;50.906;6.172;2023-12-22T12:22:56;9.90;1.00
16038;DHT22;8123;50.906;6.172;2023-12-22T12:25:22;9.90;1.00
16038;DHT22;8123;50.906;6.172;2023-12-22T12:28:05;10.30;1.00
16038;DHT22;8123;50.906;6.172;2023-12-22T12:30:32;9.90;1.00
16038;DHT22;8123;50.906;6.172;2023-12-22T12:33:11;9.90;1.00
16038;DHT22;8123;50.906;6.172;2023-12-22T12:35:41;10.00;1.00
16038;DHT22;8123;50.906;6.172;2023-12-22T12:38:09;10.00;1.00
16038;DHT22;8123;50.906;6.172;2023-12-22T12:40:39;10.00;1.00
16038;DHT22;8123;50.906;6.172;2023-12-22T12:43:05;10.00;1.00
16038;DHT22;8123;50.906;6.172;2023-12-22T12:45:30;10.00;1.00
16038;DHT22;8123;50.906;6.172;2023-12-22T12:48:00;10.20;1.00
16038;DHT22;8123;50.906;6.172;2023-12-22T12:50:26;9.90;1.00
16038;DHT22;8123;50.906;6.172;2023-12-22T12:52:55;9.90;1.00
16038;DHT22;8123;50.906;6.172;2023-12-22T12:55:25;9.90;1.00
16038;DHT22;8123;50.906;6.172;2023-12-22T12:57:52;9.90;1.00
16038;DHT22;8123;50.906;6.172;2023-12-22T13:00:28;10.00;1.00
16038;DHT22;8123;50.906;6.172;2023-12-22T13:03:04;10.10;1.00
16038;DHT22;8123;50.906;6.172;2023-12-22T13:05:30;10.00;1.00
16038;DHT22;8123;50.906;6.172;2023-12-22T13:08:09;10.00;1.00
16038;DHT22;8123;50.906;6.172;2023-12-22T13:10:35;10.00;1.00
16038;DHT22;8123;50.906;6.172;2023-12-22T13:13:01;9.90;1.00
16038;DHT22;8123;50.906;6.172;2023-12-22T13:15:26;10.00;1.00
16038;DHT22;8123;50.906;6.172;2023-12-22T13:17:52;10.00;1.00
16038;DHT22;8123;50.906;6.172;2023-12-22T13:20:18;10.20;1.00
16038;DHT22;8123;50.906;6.172;2023-12-22T13:22:44;9.90;1.00
16038;DHT22;8123;50.906;6.172;2023-12-22T13:25:10;10.00;1.00
16038;DHT22;8123;50.906;6.172;2023-12-22T13:27:50;10.00;1.00
16038;DHT22;8123;50.906;6.172;2023-12-22T13:30:36;10.00;1.00
16038;DHT22;8123;50.906;6.172;2023-12-22T13:33:03;10.00;1.00
16038;DHT22;8123;50.906;6.172;2023-12-22T13:35:29;10.00;1.00
16038;DHT22;8123;50.906;6.172;2023-12-22T13:37:56;10.00;1.00
16038;DHT22;8123;50.906;6.172;2023-12-22T13:40:22;10.00;1.00
16038;DHT22;8123;50.906;6.172;2023-12-22T13:42:57;10.00;1.00
16038;DHT22;8123;50.906;6.172;2023-12-22T13:45:24;10.00;1.00
16038;DHT22;8123;50.906;6.172;2023-12-22T13:47:51;9.80;1.00
16038;DHT22;8123;50.906;6.172;2023-12-22T13:50:17;10.00;1.00
16038;DHT22;8123;50.906;6.172;2023-12-22T13:52:44;10.00;1.00
16038;DHT22;8123;50.906;6.172;2023-12-22T13:55:14;10.00;1.00
16038;DHT22;8123;50.906;6.172;2023-12-22T13:57:41;10.00;1.00
16038;DHT22;8123;50.906;6.172;2023-12-22T14:02:45;10.00;1.00
16038;DHT22;8123;50.906;6.172;2023-12-22T14:05:11;10.10;1.00
16038;DHT22;8123;50.906;6.172;2023-12-22T14:07:37;9.90;1.00
16038;DHT22;8123;50.906;6.172;2023-12-22T14:10:09;9.90;1.00
16038;DHT22;8123;50.906;6.172;2023-12-22T14:12:39;9.90;1.00
16038;DHT22;8123;50.906;6.172;2023-12-22T14:15:09;9.90;1.00
16038;DHT22;8123;50.906;6.172;2023-12-22T14:17:35;9.90;1.00
16038;DHT22;8123;50.906;6.172;2023-12-22T14:20:01;9.90;1.00
16038;DHT22;8123;50.906;6.172;2023-12-22T14:22:27;9.80;1.00
16038;DHT22;8123;50.906;6.172;2023-12-22T14:24:53;9.90;1.00
16038;DHT22;8123;50.906;6.172;2023-12-22T14:27:19;9.80;1.00
16038;DHT22;8123;50.906;6.172;2023-12-22T14:29:48;10.00;1.00
16038;DHT22;8123;50.906;6.172;2023-12-22T14:32:13;9.80;1.00
16038;DHT22;8123;50.906;6.172;2023-12-22T14:34:46;9.80;1.10
16038;DHT22;8123;50.906;6.172;2023-12-22T14:37:12;10.00;4.40
16038;DHT22;8123;50.906;6.172;2023-12-22T14:39:39;9.80;11.40
16038;DHT22;8123;50.906;6.172;2023-12-22T14:42:05;9.70;15.60
16038;DHT22;8123;50.906;6.172;2023-12-22T14:44:31;9.70;15.20
16038;DHT22;8123;50.906;6.172;2023-12-22T14:46:56;9.70;12.70
16038;DHT22;8123;50.906;6.172;2023-12-22T14:49:22;9.70;13.60
16038;DHT22;8123;50.906;6.172;2023-12-22T14:51:48;9.80;14.50
16038;DHT22;8123;50.906;6.172;2023-12-22T14:54:21;9.70;16.90
16038;DHT22;8123;50.906;6.172;2023-12-22T14:56:47;9.70;22.40
16038;DHT22;8123;50.906;6.172;2023-12-22T14:59:14;9.80;15.10
16038;DHT22;8123;50.906;6.172;2023-12-22T15:01:40;9.80;20.70
16038;DHT22;8123;50.906;6.172;2023-12-22T15:04:07;9.90;22.40
16038;DHT22;8123;50.906;6.172;2023-12-22T15:06:37;9.70;21.40
16038;DHT22;8123;50.906;6.172;2023-12-22T15:09:03;9.70;14.50
16038;DHT22;8123;50.906;6.172;2023-12-22T15:11:29;9.90;9.00
16038;DHT22;8123;50.906;6.172;2023-12-22T15:13:54;9.70;2.50
16038;DHT22;8123;50.906;6.172;2023-12-22T15:16:20;9.90;1.00
16038;DHT22;8123;50.906;6.172;2023-12-22T15:18:46;9.70;1.00
16038;DHT22;8123;50.906;6.172;2023-12-22T15:21:21;9.70;1.00
16038;DHT22;8123;50.906;6.172;2023-12-22T15:23:47;9.70;1.00
16038;DHT22;8123;50.906;6.172;2023-12-22T15:26:22;9.70;4.50
16038;DHT22;8123;50.906;6.172;2023-12-22T15:28:49;9.70;4.50
16038;DHT22;8123;50.906;6.172;2023-12-22T15:31:14;9.70;9.00
16038;DHT22;8123;50.906;6.172;2023-12-22T15:33:40;9.70;20.50
16038;DHT22;8123;50.906;6.172;2023-12-22T15:36:06;9.80;26.60
16038;DHT22;8123;50.906;6.172;2023-12-22T15:38:31;9.60;39.00
16038;DHT22;8123;50.906;6.172;2023-12-22T15:41:03;9.50;48.90
16038;DHT22;8123;50.906;6.172;2023-12-22T15:43:29;9.50;52.10
16038;DHT22;8123;50.906;6.172;2023-12-22T15:45:54;9.50;53.00
16038;DHT22;8123;50.906;6.172;2023-12-22T15:48:20;9.50;57.40
16038;DHT22;8123;50.906;6.172;2023-12-22T15:50:45;9.50;52.20
16038;DHT22;8123;50.906;6.172;2023-12-22T15:53:12;9.50;53.00
16038;DHT22;8123;50.906;6.172;2023-12-22T15:55:38;9.70;55.70
16038;DHT22;8123;50.906;6.172;2023-12-22T15:58:03;9.50;58.20
16038;DHT22;8123;50.906;6.172;2023-12-22T16:00:29;9.50;61.90
16038;DHT22;8123;50.906;6.172;2023-12-22T16:02:55;9.70;61.90
16038;DHT22;8123;50.906;6.172;2023-12-22T16:05:20;9.50;52.10
16038;DHT22;8123;50.906;6.172;2023-12-22T16:07:46;9.70;39.30
16038;DHT22;8123;50.906;6.172;2023-12-22T16:10:12;9.80;39.90
16038;DHT22;8123;50.906;6.172;2023-12-22T16:12:38;9.50;53.70
16038;DHT22;8123;50.906;6.172;2023-12-22T16:15:08;9.70;53.10
16038;DHT22;8123;50.906;6.172;2023-12-22T16:17:33;9.50;56.70
16038;DHT22;8123;50.906;6.172;2023-12-22T16:19:59;9.50;64.40